Time;durP1;ratioP1;P1;durP2;ratioP2;P2;SDS_P1;SDS_P2;PMS_P1;PMS_P2;Temp;Humidity;BMP_temperature;BMP_pressure;BME280_temperature;BME280_humidity;BME280_pressure;Samples;Min_cycle;Max_cycle;Signal;HPM_P1;HPM_P2
2022/02/24 00:00:38;;;;;;;9.77;2.72;;;;;;;;;;5044836;28;20044;-82
2022/02/24 00:03:04;;;;;;;11.27;2.78;;;;;;;;;;5049038;28;20482;-82
2022/02/24 00:05:30;;;;;;;10.35;3.55;;;;;;;;;;5055579;28;20033;-81
2022/02/24 00:07:59;;;;;;;13.65;2.92;;;;;;;;;;5067166;28;20051;-82
2022/02/24 00:10:25;;;;;;;10.40;2.80;;;;;;;;;;5060430;28;20047;-82
2022/02/24 00:12:51;;;;;;;10.68;2.70;;;;;;;;;;5066542;28;20044;-81
2022/02/24 00:15:17;;;;;;;7.78;2.70;;;;;;;;;;5059063;28;20393;-82
2022/02/24 00:17:43;;;;;;;7.95;2.97;;;;;;;;;;5071483;28;20051;-82
2022/02/24 00:20:09;;;;;;;9.82;2.67;;;;;;;;;;5076066;28;20541;-82
2022/02/24 00:22:35;;;;;;;7.90;2.80;;;;;;;;;;5066304;28;20094;-82
2022/02/24 00:25:02;;;;;;;9.02;2.17;;;;;;;;;;5055236;28;20474;-82
2022/02/24 00:27:28;;;;;;;7.93;2.33;;;;;;;;;;5070270;28;20039;-82
2022/02/24 00:29:54;;;;;;;8.40;2.72;;;;;;;;;;5064179;28;20043;-81
2022/02/24 00:32:20;;;;;;;9.27;2.72;;;;;;;;;;5043837;28;20386;-82
2022/02/24 00:34:46;;;;;;;9.27;2.63;;;;;;;;;;5067023;28;20123;-81
2022/02/24 00:37:14;;;;;;;10.85;2.65;;;;;;;;;;5039047;28;20051;-81
2022/02/24 00:39:40;;;;;;;11.18;2.60;;;;;;;;;;5055020;28;20052;-82
2022/02/24 00:42:06;;;;;;;10.57;3.38;;;;;;;;;;5069629;28;20049;-82
2022/02/24 00:44:32;;;;;;;7.68;2.45;;;;;;;;;;5067005;28;20037;-82
2022/02/24 00:46:58;;;;;;;8.38;2.38;;;;;;;;;;5055205;28;20039;-82
2022/02/24 00:49:24;;;;;;;8.57;2.85;;;;;;;;;;5085251;28;20024;-82
2022/02/24 00:51:51;;;;;;;9.70;2.28;;;;;;;;;;5044532;28;20037;-82
2022/02/24 00:54:16;;;;;;;12.88;3.40;;;;;;;;;;5043249;28;20048;-82
2022/02/24 00:56:42;;;;;;;10.27;2.67;;;;;;;;;;5039727;28;20379;-81
2022/02/24 00:59:09;;;;;;;9.23;2.67;;;;;;;;;;5032534;28;20037;-81
2022/02/24 01:01:35;;;;;;;8.77;2.20;;;;;;;;;;5051741;28;20041;-81
2022/02/24 01:04:01;;;;;;;10.02;2.50;;;;;;;;;;5071960;28;20440;-82
2022/02/24 01:06:27;;;;;;;9.52;2.72;;;;;;;;;;5051801;28;20099;-82
2022/02/24 01:08:53;;;;;;;13.18;2.10;;;;;;;;;;5065652;28;20045;-82
2022/02/24 01:11:19;;;;;;;8.68;2.33;;;;;;;;;;5031684;28;20517;-82
2022/02/24 01:13:44;;;;;;;9.35;2.50;;;;;;;;;;5048456;28;20049;-81
2022/02/24 01:16:10;;;;;;;6.85;2.35;;;;;;;;;;5047741;28;20077;-82
2022/02/24 01:18:36;;;;;;;10.73;2.67;;;;;;;;;;5048129;28;20099;-82
2022/02/24 01:21:03;;;;;;;8.57;2.30;;;;;;;;;;5029431;28;20377;-82
2022/02/24 01:23:29;;;;;;;10.10;2.80;;;;;;;;;;5028075;28;20034;-82
2022/02/24 01:25:55;;;;;;;10.70;2.60;;;;;;;;;;5040505;28;20070;-82
2022/02/24 01:28:20;;;;;;;11.25;2.92;;;;;;;;;;5032038;28;20053;-81
2022/02/24 01:30:46;;;;;;;11.27;2.38;;;;;;;;;;5023219;28;20048;-82
2022/02/24 01:33:12;;;;;;;9.50;2.25;;;;;;;;;;5039161;28;20038;-81
2022/02/24 01:35:38;;;;;;;9.10;2.53;;;;;;;;;;5057114;28;20060;-81
2022/02/24 01:38:04;;;;;;;6.00;1.92;;;;;;;;;;5034929;28;20085;-81
2022/02/24 01:40:30;;;;;;;6.68;2.10;;;;;;;;;;5034983;28;20502;-82
2022/02/24 01:42:56;;;;;;;9.00;2.08;;;;;;;;;;5034908;28;20045;-82
2022/02/24 01:45:22;;;;;;;10.00;3.22;;;;;;;;;;5031477;28;20047;-81
2022/02/24 01:47:49;;;;;;;9.25;2.75;;;;;;;;;;5034949;28;20065;-82
2022/02/24 01:50:15;;;;;;;10.15;1.98;;;;;;;;;;5018742;28;20379;-82
2022/02/24 01:52:42;;;;;;;9.27;2.67;;;;;;;;;;5035191;28;20116;-82
2022/02/24 01:55:08;;;;;;;9.10;1.90;;;;;;;;;;5034261;28;20100;-82
2022/02/24 01:57:34;;;;;;;6.50;1.90;;;;;;;;;;5034875;28;20124;-82
2022/02/24 02:00:01;;;;;;;11.23;1.95;;;;;;;;;;5018725;28;20479;-82
2022/02/24 02:02:27;;;;;;;8.57;2.08;;;;;;;;;;5051225;28;20050;-82
2022/02/24 02:04:53;;;;;;;4.65;1.95;;;;;;;;;;5066035;28;20091;-82
2022/02/24 02:07:19;;;;;;;9.35;1.77;;;;;;;;;;5029668;28;20049;-82
2022/02/24 02:09:45;;;;;;;7.10;2.15;;;;;;;;;;5024326;28;20049;-82
2022/02/24 02:12:11;;;;;;;7.20;2.20;;;;;;;;;;5034161;28;20033;-82
2022/02/24 02:14:37;;;;;;;8.15;2.28;;;;;;;;;;5024915;28;20041;-82
2022/02/24 02:17:03;;;;;;;7.93;2.10;;;;;;;;;;5033677;28;20369;-82
2022/02/24 02:19:29;;;;;;;12.18;2.67;;;;;;;;;;5046940;28;20041;-82
2022/02/24 02:21:55;;;;;;;9.15;1.83;;;;;;;;;;5044551;28;20533;-82
2022/02/24 02:24:21;;;;;;;8.23;2.28;;;;;;;;;;5033726;28;20041;-82
2022/02/24 02:26:49;;;;;;;9.20;2.03;;;;;;;;;;5036126;28;20100;-82
2022/02/24 02:29:16;;;;;;;7.60;1.98;;;;;;;;;;5034374;28;20045;-82
2022/02/24 02:31:42;;;;;;;9.85;2.22;;;;;;;;;;5050784;28;20188;-82
2022/02/24 02:34:13;;;;;;;9.25;2.35;;;;;;;;;;5037388;28;20120;-82
2022/02/24 02:36:40;;;;;;;9.00;1.90;;;;;;;;;;5041761;28;20432;-82
2022/02/24 02:39:10;;;;;;;6.50;2.05;;;;;;;;;;5046973;28;20495;-82
2022/02/24 02:41:36;;;;;;;8.55;1.60;;;;;;;;;;5034135;28;20053;-82
2022/02/24 02:44:02;;;;;;;6.53;2.38;;;;;;;;;;5038303;28;20099;-82
2022/02/24 02:46:28;;;;;;;7.47;2.08;;;;;;;;;;5053673;28;20033;-82
2022/02/24 02:48:54;;;;;;;10.68;1.92;;;;;;;;;;5047619;28;20072;-82
2022/02/24 02:51:20;;;;;;;8.48;2.17;;;;;;;;;;5045966;28;20140;-82
2022/02/24 02:53:47;;;;;;;9.27;2.30;;;;;;;;;;5052920;28;20036;-82
2022/02/24 02:56:13;;;;;;;10.13;2.80;;;;;;;;;;5033665;28;20041;-82
2022/02/24 02:58:39;;;;;;;7.60;1.90;;;;;;;;;;5040586;28;20190;-82
2022/02/24 03:01:05;;;;;;;8.75;2.00;;;;;;;;;;5033220;28;20044;-82
2022/02/24 03:03:31;;;;;;;9.82;1.90;;;;;;;;;;5033645;28;20052;-83
2022/02/24 03:05:57;;;;;;;8.75;2.08;;;;;;;;;;5053134;28;20053;-82
2022/02/24 03:08:23;;;;;;;7.63;2.08;;;;;;;;;;5053405;28;20103;-82
2022/02/24 03:10:50;;;;;;;7.53;1.85;;;;;;;;;;5053417;28;20038;-82
2022/02/24 03:13:16;;;;;;;7.82;1.90;;;;;;;;;;5042750;28;20114;-82
2022/02/24 03:15:42;;;;;;;9.27;2.58;;;;;;;;;;5054983;28;20068;-82
2022/02/24 03:18:08;;;;;;;11.13;2.60;;;;;;;;;;5042260;28;20036;-82
2022/02/24 03:20:35;;;;;;;10.35;2.10;;;;;;;;;;5015747;28;20056;-82
2022/02/24 03:23:02;;;;;;;11.73;2.00;;;;;;;;;;5029691;28;20042;-82
2022/02/24 03:25:28;;;;;;;7.18;1.83;;;;;;;;;;5038851;28;20038;-82
2022/02/24 03:27:54;;;;;;;8.60;2.05;;;;;;;;;;5046174;28;20086;-82
2022/02/24 03:30:20;;;;;;;10.95;2.70;;;;;;;;;;5033162;28;20120;-82
2022/02/24 03:32:46;;;;;;;11.82;2.40;;;;;;;;;;5037227;28;20049;-82
2022/02/24 03:35:13;;;;;;;10.95;2.40;;;;;;;;;;5025223;28;20037;-82
2022/02/24 03:37:39;;;;;;;8.40;2.30;;;;;;;;;;5052939;28;20048;-82
2022/02/24 03:40:05;;;;;;;7.63;1.70;;;;;;;;;;5037491;28;20094;-82
2022/02/24 03:42:32;;;;;;;12.80;1.98;;;;;;;;;;5049649;28;20076;-82
2022/02/24 03:44:58;;;;;;;8.73;1.90;;;;;;;;;;5049891;28;20546;-82
2022/02/24 03:47:24;;;;;;;6.68;2.20;;;;;;;;;;5030200;28;20085;-82
2022/02/24 03:49:50;;;;;;;10.05;1.90;;;;;;;;;;5032408;28;20045;-82
2022/02/24 03:52:16;;;;;;;7.53;2.22;;;;;;;;;;5037967;28;20517;-82
2022/02/24 03:54:43;;;;;;;11.35;2.28;;;;;;;;;;5049083;28;20043;-82
2022/02/24 03:57:09;;;;;;;10.23;2.20;;;;;;;;;;5033145;28;20087;-82
2022/02/24 03:59:35;;;;;;;9.23;2.75;;;;;;;;;;5049155;28;20041;-82
2022/02/24 04:02:01;;;;;;;8.23;1.75;;;;;;;;;;5046943;28;20041;-82
2022/02/24 04:04:27;;;;;;;9.13;2.05;;;;;;;;;;5048090;28;20045;-82
2022/02/24 04:06:53;;;;;;;12.57;2.25;;;;;;;;;;5049361;28;20052;-82
2022/02/24 04:09:19;;;;;;;6.10;1.90;;;;;;;;;;5072396;28;20120;-82
2022/02/24 04:11:45;;;;;;;6.80;2.20;;;;;;;;;;5068518;28;20102;-82
2022/02/24 04:14:11;;;;;;;7.55;2.20;;;;;;;;;;5052509;28;20044;-82
2022/02/24 04:16:37;;;;;;;6.68;1.90;;;;;;;;;;5068822;28;20045;-82
2022/02/24 04:19:03;;;;;;;10.52;2.63;;;;;;;;;;5069082;28;20129;-82
2022/02/24 04:21:29;;;;;;;11.20;2.03;;;;;;;;;;5068460;28;20107;-82
2022/02/24 04:23:55;;;;;;;10.77;1.95;;;;;;;;;;5051973;28;20490;-82
2022/02/24 04:26:21;;;;;;;8.25;1.65;;;;;;;;;;5052399;28;20091;-82
2022/02/24 04:28:47;;;;;;;8.32;1.95;;;;;;;;;;5055581;28;20098;-82
2022/02/24 04:31:13;;;;;;;9.82;2.40;;;;;;;;;;5055989;28;20041;-82
2022/02/24 04:33:39;;;;;;;7.70;1.70;;;;;;;;;;5054474;28;20079;-82
2022/02/24 04:36:05;;;;;;;8.50;2.47;;;;;;;;;;5052292;28;20045;-82
2022/02/24 04:38:32;;;;;;;9.88;2.20;;;;;;;;;;5057816;28;20450;-82
2022/02/24 04:40:57;;;;;;;10.45;2.42;;;;;;;;;;5047251;28;20037;-82
2022/02/24 04:43:23;;;;;;;10.23;1.83;;;;;;;;;;5050358;28;20461;-82
2022/02/24 04:45:50;;;;;;;10.52;2.58;;;;;;;;;;5066119;28;20033;-82
2022/02/24 04:48:18;;;;;;;9.98;2.55;;;;;;;;;;5051827;28;20129;-82
2022/02/24 04:50:45;;;;;;;9.35;2.42;;;;;;;;;;5071195;28;20352;-82
2022/02/24 04:53:11;;;;;;;9.10;2.33;;;;;;;;;;5043839;28;20076;-82
2022/02/24 04:55:37;;;;;;;8.63;1.85;;;;;;;;;;5051881;28;20043;-82
2022/02/24 04:58:03;;;;;;;8.85;2.45;;;;;;;;;;5071949;28;20040;-82
2022/02/24 05:00:29;;;;;;;8.25;1.90;;;;;;;;;;5048964;28;20422;-82
2022/02/24 05:02:55;;;;;;;9.85;2.33;;;;;;;;;;5015851;28;20037;-82
2022/02/24 05:05:21;;;;;;;7.95;2.28;;;;;;;;;;5025397;28;20045;-82
2022/02/24 05:07:47;;;;;;;8.50;2.40;;;;;;;;;;5069232;28;20053;-82
2022/02/24 05:10:13;;;;;;;9.05;2.55;;;;;;;;;;5081498;28;20037;-82
2022/02/24 05:12:39;;;;;;;9.75;2.85;;;;;;;;;;5070941;28;20057;-82
2022/02/24 05:15:06;;;;;;;10.45;2.42;;;;;;;;;;5055580;28;20052;-82
2022/02/24 05:17:33;;;;;;;6.75;2.45;;;;;;;;;;5055854;28;20048;-82
2022/02/24 05:20:00;;;;;;;10.88;2.65;;;;;;;;;;5055347;28;20045;-82
2022/02/24 05:22:26;;;;;;;8.40;2.28;;;;;;;;;;5056015;22;20045;-82
2022/02/24 05:24:52;;;;;;;8.48;1.98;;;;;;;;;;5022729;28;20482;-82
2022/02/24 05:27:18;;;;;;;10.07;3.45;;;;;;;;;;5038728;28;20043;-82
2022/02/24 05:29:44;;;;;;;10.00;2.92;;;;;;;;;;5042200;28;20067;-82
2022/02/24 05:32:10;;;;;;;6.07;2.33;;;;;;;;;;5040323;28;20052;-82
2022/02/24 05:34:36;;;;;;;10.07;2.90;;;;;;;;;;5042234;28;20033;-82
2022/02/24 05:37:03;;;;;;;9.82;2.80;;;;;;;;;;5048237;28;20041;-82
2022/02/24 05:39:29;;;;;;;10.40;2.92;;;;;;;;;;5038966;28;20486;-82
2022/02/24 05:41:55;;;;;;;8.73;2.72;;;;;;;;;;5022016;28;20039;-82
2022/02/24 05:44:21;;;;;;;12.20;4.60;;;;;;;;;;5050069;28;20095;-82
2022/02/24 05:46:47;;;;;;;12.57;5.32;;;;;;;;;;5038307;28;20100;-82
2022/02/24 05:49:15;;;;;;;14.85;5.43;;;;;;;;;;5044206;28;20045;-82
2022/02/24 05:51:41;;;;;;;11.45;4.10;;;;;;;;;;5054956;28;20052;-82
2022/02/24 05:54:07;;;;;;;9.50;3.13;;;;;;;;;;5042227;28;20390;-82
2022/02/24 05:56:33;;;;;;;9.27;3.10;;;;;;;;;;5026878;28;20041;-82
2022/02/24 05:58:59;;;;;;;8.98;2.85;;;;;;;;;;5020988;28;20568;-82
2022/02/24 06:01:25;;;;;;;8.88;2.53;;;;;;;;;;5001751;28;20041;-82
2022/02/24 06:03:52;;;;;;;9.82;2.55;;;;;;;;;;5036830;28;20090;-82
2022/02/24 06:06:18;;;;;;;11.40;2.53;;;;;;;;;;5027421;28;20572;-82
2022/02/24 06:08:44;;;;;;;11.85;2.83;;;;;;;;;;5040000;28;20536;-82
2022/02/24 06:11:10;;;;;;;7.45;2.67;;;;;;;;;;5038422;28;20037;-82
2022/02/24 06:13:36;;;;;;;7.90;2.17;;;;;;;;;;5037796;28;20045;-82
2022/02/24 06:16:02;;;;;;;7.80;2.35;;;;;;;;;;5021358;28;20044;-82
2022/02/24 06:18:29;;;;;;;9.25;3.08;;;;;;;;;;5027656;28;20048;-82
2022/02/24 06:20:54;;;;;;;7.90;2.55;;;;;;;;;;5048297;28;20044;-82
2022/02/24 06:23:20;;;;;;;9.48;2.72;;;;;;;;;;5054154;28;20056;-82
2022/02/24 06:25:47;;;;;;;5.95;2.63;;;;;;;;;;5043223;28;20041;-82
2022/02/24 06:28:13;;;;;;;8.80;2.58;;;;;;;;;;5047422;28;20045;-83
2022/02/24 06:30:39;;;;;;;10.48;2.67;;;;;;;;;;5036321;28;20045;-82
2022/02/24 06:33:05;;;;;;;6.63;2.25;;;;;;;;;;5054042;28;20510;-82
2022/02/24 06:35:31;;;;;;;6.50;2.88;;;;;;;;;;5021066;28;20041;-82
2022/02/24 06:37:59;;;;;;;8.95;2.35;;;;;;;;;;5053680;28;20375;-82
2022/02/24 06:40:25;;;;;;;10.32;2.45;;;;;;;;;;5026893;28;20049;-83
2022/02/24 06:42:51;;;;;;;7.18;2.60;;;;;;;;;;5033645;28;20037;-82
2022/02/24 06:45:17;;;;;;;9.38;3.22;;;;;;;;;;5020143;28;20066;-83
2022/02/24 06:47:43;;;;;;;10.75;3.53;;;;;;;;;;5073806;28;20082;-82
2022/02/24 06:50:11;;;;;;;7.75;2.75;;;;;;;;;;5053172;28;20102;-82
2022/02/24 06:52:37;;;;;;;11.07;3.00;;;;;;;;;;5054388;28;20045;-83
2022/02/24 06:55:04;;;;;;;10.15;2.92;;;;;;;;;;5056782;28;20544;-83
2022/02/24 06:57:30;;;;;;;8.35;2.60;;;;;;;;;;5060161;28;20048;-83
2022/02/24 06:59:56;;;;;;;10.10;3.05;;;;;;;;;;5020167;28;20110;-82
2022/02/24 07:02:22;;;;;;;7.93;2.35;;;;;;;;;;5042893;28;20128;-83
2022/02/24 07:04:48;;;;;;;8.45;2.58;;;;;;;;;;5035508;28;20064;-83
2022/02/24 07:07:14;;;;;;;11.80;2.50;;;;;;;;;;5051598;28;20475;-83
2022/02/24 07:09:40;;;;;;;11.85;3.50;;;;;;;;;;5038255;28;20406;-83
2022/02/24 07:12:06;;;;;;;6.40;2.33;;;;;;;;;;5051794;28;20116;-83
2022/02/24 07:14:32;;;;;;;9.63;2.85;;;;;;;;;;5064133;28;20065;-83
2022/02/24 07:16:58;;;;;;;9.68;3.10;;;;;;;;;;5036527;28;20099;-82
2022/02/24 07:19:24;;;;;;;9.23;2.85;;;;;;;;;;5040740;28;20041;-83
2022/02/24 07:21:50;;;;;;;7.90;2.88;;;;;;;;;;5038526;28;20456;-83
2022/02/24 07:24:16;;;;;;;11.02;3.10;;;;;;;;;;5050688;28;20120;-82
2022/02/24 07:26:42;;;;;;;13.25;3.10;;;;;;;;;;5039000;28;20037;-82
2022/02/24 07:29:08;;;;;;;10.65;2.97;;;;;;;;;;5032594;28;20033;-82
2022/02/24 07:31:34;;;;;;;11.27;2.78;;;;;;;;;;5018936;28;20120;-83
2022/02/24 07:34:04;;;;;;;10.15;2.75;;;;;;;;;;5014749;28;20041;-82
2022/02/24 07:36:31;;;;;;;8.98;2.72;;;;;;;;;;5042721;28;20056;-82
2022/02/24 07:38:57;;;;;;;9.27;3.35;;;;;;;;;;5031851;28;20055;-82
2022/02/24 07:41:22;;;;;;;11.07;3.50;;;;;;;;;;5019289;28;20119;-82
2022/02/24 07:43:48;;;;;;;7.20;2.58;;;;;;;;;;5050621;28;20041;-82
2022/02/24 07:46:14;;;;;;;10.52;3.20;;;;;;;;;;5035427;28;20033;-82
2022/02/24 07:48:40;;;;;;;9.32;2.40;;;;;;;;;;5006450;28;20124;-82
2022/02/24 07:51:06;;;;;;;11.48;2.95;;;;;;;;;;5034012;28;20098;-83
2022/02/24 07:53:32;;;;;;;10.45;3.10;;;;;;;;;;5034730;28;20037;-83
2022/02/24 07:55:59;;;;;;;8.60;3.03;;;;;;;;;;5016915;28;20045;-83
2022/02/24 07:58:25;;;;;;;9.93;2.97;;;;;;;;;;5030467;28;20171;-82
2022/02/24 08:00:51;;;;;;;14.43;3.40;;;;;;;;;;5034400;28;20123;-83
2022/02/24 08:03:17;;;;;;;9.48;2.85;;;;;;;;;;5026638;28;20052;-82
2022/02/24 08:05:42;;;;;;;9.40;3.22;;;;;;;;;;5051722;28;20037;-82
2022/02/24 08:08:08;;;;;;;11.48;3.60;;;;;;;;;;5034983;28;20082;-83
2022/02/24 08:10:34;;;;;;;10.02;2.85;;;;;;;;;;5051402;28;20074;-82
2022/02/24 08:13:01;;;;;;;12.07;3.10;;;;;;;;;;5035184;28;20045;-83
2022/02/24 08:15:28;;;;;;;10.43;2.95;;;;;;;;;;5035600;28;20138;-83
2022/02/24 08:17:54;;;;;;;9.73;2.88;;;;;;;;;;5014805;28;20098;-82
2022/02/24 08:20:20;;;;;;;8.40;2.90;;;;;;;;;;5031977;28;20041;-82
2022/02/24 08:22:50;;;;;;;8.35;2.58;;;;;;;;;;5016859;28;20052;-82
2022/02/24 08:25:17;;;;;;;6.90;2.55;;;;;;;;;;5018822;28;20441;-83
2022/02/24 08:27:44;;;;;;;11.15;3.58;;;;;;;;;;5032361;28;20072;-81
2022/02/24 08:30:12;;;;;;;9.52;2.65;;;;;;;;;;5034496;28;20048;-82
2022/02/24 08:32:38;;;;;;;9.20;3.03;;;;;;;;;;5021303;28;20049;-82
2022/02/24 08:35:05;;;;;;;6.80;2.40;;;;;;;;;;5051624;28;20072;-81
2022/02/24 08:37:31;;;;;;;10.48;2.63;;;;;;;;;;5049700;28;20045;-82
2022/02/24 08:39:57;;;;;;;10.50;3.33;;;;;;;;;;5013148;28;20452;-82
2022/02/24 08:42:25;;;;;;;9.75;2.97;;;;;;;;;;5053763;28;20049;-82
2022/02/24 08:44:51;;;;;;;8.82;3.28;;;;;;;;;;5037012;28;20041;-82
2022/02/24 08:47:18;;;;;;;8.13;2.63;;;;;;;;;;5051626;28;20083;-82
2022/02/24 08:49:44;;;;;;;6.22;3.35;;;;;;;;;;5036888;28;20037;-81
2022/02/24 08:52:10;;;;;;;9.70;3.10;;;;;;;;;;5036303;28;20527;-81
2022/02/24 08:54:36;;;;;;;11.32;2.85;;;;;;;;;;5038501;28;20049;-81
2022/02/24 08:57:03;;;;;;;10.15;3.28;;;;;;;;;;5048031;28;20047;-80
2022/02/24 08:59:29;;;;;;;13.55;3.25;;;;;;;;;;5055766;28;20033;-80
2022/02/24 09:01:55;;;;;;;8.43;3.17;;;;;;;;;;5055769;28;20068;-81
2022/02/24 09:04:22;;;;;;;11.07;2.95;;;;;;;;;;5038840;28;20047;-81
2022/02/24 09:06:48;;;;;;;8.52;3.05;;;;;;;;;;5030016;28;20118;-81
2022/02/24 09:09:14;;;;;;;9.38;2.70;;;;;;;;;;5038207;28;20037;-81
2022/02/24 09:11:40;;;;;;;8.32;3.00;;;;;;;;;;5047774;28;20099;-81
2022/02/24 09:14:06;;;;;;;11.95;3.33;;;;;;;;;;5029581;28;20086;-81
2022/02/24 09:16:33;;;;;;;7.93;2.60;;;;;;;;;;5028570;28;20043;-81
2022/02/24 09:18:59;;;;;;;11.90;3.53;;;;;;;;;;5044983;28;20056;-81
2022/02/24 09:21:25;;;;;;;9.50;3.03;;;;;;;;;;5038300;28;20052;-81
2022/02/24 09:23:51;;;;;;;8.75;2.60;;;;;;;;;;5024226;28;20055;-80
2022/02/24 09:26:17;;;;;;;9.52;2.88;;;;;;;;;;5021938;28;20129;-81
2022/02/24 09:28:43;;;;;;;8.07;2.92;;;;;;;;;;5039085;28;20037;-81
2022/02/24 09:31:09;;;;;;;9.25;3.20;;;;;;;;;;5037212;28;20094;-81
2022/02/24 09:33:35;;;;;;;12.50;2.85;;;;;;;;;;5054971;28;20044;-81
2022/02/24 09:36:01;;;;;;;9.55;2.92;;;;;;;;;;5039525;28;20056;-81
2022/02/24 09:38:27;;;;;;;7.93;3.25;;;;;;;;;;5035965;28;20040;-81
2022/02/24 09:40:55;;;;;;;9.73;3.40;;;;;;;;;;5035722;28;20076;-81
2022/02/24 09:43:23;;;;;;;7.38;2.72;;;;;;;;;;5044007;28;20053;-81
2022/02/24 09:45:50;;;;;;;9.30;3.28;;;;;;;;;;5053529;28;20047;-81
2022/02/24 09:48:23;;;;;;;8.50;3.00;;;;;;;;;;5049818;28;20478;-81
2022/02/24 09:50:52;;;;;;;8.23;2.67;;;;;;;;;;5021325;28;20037;-81
2022/02/24 09:53:19;;;;;;;9.70;2.75;;;;;;;;;;5018131;28;20043;-80
2022/02/24 09:55:45;;;;;;;11.05;3.00;;;;;;;;;;5035917;28;20099;-80
2022/02/24 09:58:11;;;;;;;9.25;3.28;;;;;;;;;;5038759;28;20049;-80
2022/02/24 10:00:37;;;;;;;10.23;2.88;;;;;;;;;;5036324;28;20051;-80
2022/02/24 10:03:23;;;;;;;10.50;3.30;;;;;;;;;;5054258;28;20053;-81
2022/02/24 10:05:49;;;;;;;10.57;3.58;;;;;;;;;;5035651;28;20040;-81
2022/02/24 10:08:15;;;;;;;7.97;2.75;;;;;;;;;;5038417;28;20041;-81
2022/02/24 10:10:42;;;;;;;14.75;3.42;;;;;;;;;;5011856;28;20037;-81
2022/02/24 10:13:13;;;;;;;8.68;2.58;;;;;;;;;;5053510;28;20343;-80
2022/02/24 10:15:40;;;;;;;9.70;2.67;;;;;;;;;;5023314;28;20045;-81
2022/02/24 10:18:09;;;;;;;8.77;2.85;;;;;;;;;;5032789;28;20382;-80
2022/02/24 10:20:38;;;;;;;7.22;2.78;;;;;;;;;;5034687;28;20047;-80
2022/02/24 10:23:04;;;;;;;6.65;2.63;;;;;;;;;;5032698;28;20050;-80
2022/02/24 10:25:37;;;;;;;9.32;2.58;;;;;;;;;;5022395;28;20068;-81
2022/02/24 10:28:05;;;;;;;8.82;2.42;;;;;;;;;;5026256;28;20041;-80
2022/02/24 10:30:31;;;;;;;7.75;2.63;;;;;;;;;;5048994;28;20379;-80
2022/02/24 10:32:57;;;;;;;9.02;3.00;;;;;;;;;;5036276;28;20222;-80
2022/02/24 10:35:30;;;;;;;6.32;2.83;;;;;;;;;;5042025;28;20040;-81
2022/02/24 10:38:01;;;;;;;7.72;2.45;;;;;;;;;;5027004;28;20049;-81
2022/02/24 10:40:37;;;;;;;6.63;2.10;;;;;;;;;;5031639;28;20107;-81
2022/02/24 10:43:09;;;;;;;6.00;2.00;;;;;;;;;;5060263;28;20698;-80
2022/02/24 10:45:35;;;;;;;;;;;;;;;;;;5036208;28;20043;-80
2022/02/24 10:48:02;;;;;;;8.23;2.45;;;;;;;;;;5034115;28;19916;-81
2022/02/24 10:50:48;;;;;;;3.65;1.95;;;;;;;;;;5020021;28;20041;-81
2022/02/24 10:53:15;;;;;;;7.60;2.58;;;;;;;;;;5019385;28;20088;-81
2022/02/24 10:55:52;;;;;;;5.57;2.20;;;;;;;;;;5055546;28;20067;-81
2022/02/24 10:58:18;;;;;;;4.95;2.08;;;;;;;;;;5053122;28;20051;-81
2022/02/24 11:00:44;;;;;;;7.10;2.55;;;;;;;;;;5039801;28;20040;-81
2022/02/24 11:03:10;;;;;;;4.55;2.38;;;;;;;;;;5053118;28;20052;-81
2022/02/24 11:05:37;;;;;;;6.93;2.58;;;;;;;;;;5034569;28;20037;-81
2022/02/24 11:08:04;;;;;;;8.02;2.10;;;;;;;;;;5053520;28;20045;-81
2022/02/24 11:10:30;;;;;;;7.78;2.17;;;;;;;;;;5040590;28;20091;-81
2022/02/24 11:12:56;;;;;;;6.47;2.22;;;;;;;;;;5040096;28;20068;-81
2022/02/24 11:15:23;;;;;;;8.23;2.33;;;;;;;;;;5040665;28;20075;-81
2022/02/24 11:17:50;;;;;;;6.47;2.25;;;;;;;;;;5041586;28;20052;-81
2022/02/24 11:20:16;;;;;;;7.88;2.47;;;;;;;;;;5037909;28;20080;-81
2022/02/24 11:22:42;;;;;;;4.90;1.70;;;;;;;;;;5041036;28;20048;-81
2022/02/24 11:25:11;;;;;;;9.80;2.38;;;;;;;;;;5018870;28;20445;-81
2022/02/24 11:27:39;;;;;;;8.98;2.28;;;;;;;;;;5044259;28;20037;-81
2022/02/24 11:30:25;;;;;;;7.95;2.13;;;;;;;;;;5021485;28;20049;-81
2022/02/24 11:32:51;;;;;;;8.88;2.30;;;;;;;;;;5054712;28;20510;-81
2022/02/24 11:35:18;;;;;;;6.32;2.15;;;;;;;;;;5044612;28;20041;-81
2022/02/24 11:37:50;;;;;;;8.77;2.20;;;;;;;;;;5034092;28;20069;-81
2022/02/24 11:40:18;;;;;;;5.20;1.70;;;;;;;;;;5053011;28;20060;-81
2022/02/24 11:42:46;;;;;;;7.82;2.10;;;;;;;;;;5027893;28;20049;-81
2022/02/24 11:45:31;;;;;;;10.18;2.10;;;;;;;;;;5029092;28;20037;-81
2022/02/24 11:47:58;;;;;;;6.57;2.35;;;;;;;;;;5032833;28;20043;-81
2022/02/24 11:50:29;;;;;;;12.40;2.40;;;;;;;;;;5035456;28;20482;-81
2022/02/24 11:52:55;;;;;;;8.38;2.28;;;;;;;;;;5051066;28;20094;-80
2022/02/24 11:55:41;;;;;;;8.15;2.40;;;;;;;;;;5023004;28;20128;-81
2022/02/24 11:58:22;;;;;;;7.30;2.17;;;;;;;;;;5054240;28;20187;-81
2022/02/24 12:01:07;;;;;;;8.57;2.27;;;;;;;;;;5063743;28;20041;-80
2022/02/24 12:03:45;;;;;;;8.30;1.98;;;;;;;;;;5018375;28;20044;-80
2022/02/24 12:06:17;;;;;;;6.85;2.00;;;;;;;;;;5023315;28;20037;-80
2022/02/24 12:09:02;;;;;;;6.40;2.10;;;;;;;;;;5051619;28;20037;-80
2022/02/24 12:11:29;;;;;;;6.97;2.03;;;;;;;;;;5054595;28;20513;-80
2022/02/24 12:13:55;;;;;;;6.25;2.08;;;;;;;;;;5018498;28;20483;-80
2022/02/24 12:16:22;;;;;;;7.93;2.45;;;;;;;;;;5037459;28;20107;-80
2022/02/24 12:18:49;;;;;;;6.70;1.83;;;;;;;;;;5027680;28;20150;-80
2022/02/24 12:21:34;;;;;;;6.47;2.00;;;;;;;;;;5034931;28;20095;-80
2022/02/24 12:24:04;;;;;;;5.75;2.20;;;;;;;;;;5052297;28;20186;-80
2022/02/24 12:26:40;;;;;;;6.97;1.90;;;;;;;;;;5024332;28;20037;-80
2022/02/24 12:29:28;;;;;;;5.72;2.10;;;;;;;;;;5032550;28;20044;-80
2022/02/24 12:32:01;;;;;;;7.57;2.00;;;;;;;;;;5014661;28;20052;-80
2022/02/24 12:34:27;;;;;;;8.80;2.35;;;;;;;;;;5055770;28;20120;-80
2022/02/24 12:37:03;;;;;;;5.63;1.88;;;;;;;;;;5062640;28;20037;-81
2022/02/24 12:39:30;;;;;;;3.17;1.65;;;;;;;;;;5033696;28;20067;-80
2022/02/24 12:41:56;;;;;;;6.47;2.00;;;;;;;;;;5030818;28;20045;-81
2022/02/24 12:44:26;;;;;;;5.90;1.98;;;;;;;;;;5029695;28;20040;-81
2022/02/24 12:46:52;;;;;;;8.00;2.10;;;;;;;;;;5007410;28;20037;-81
2022/02/24 12:49:19;;;;;;;6.22;2.22;;;;;;;;;;5029445;28;20083;-81
2022/02/24 12:51:45;;;;;;;6.93;2.15;;;;;;;;;;5030859;28;20382;-81
2022/02/24 12:54:15;;;;;;;5.45;1.85;;;;;;;;;;5013972;28;20130;-81
2022/02/24 12:56:41;;;;;;;8.98;2.30;;;;;;;;;;5016478;28;20125;-81
2022/02/24 12:59:11;;;;;;;7.13;2.97;;;;;;;;;;5020165;28;20435;-81
2022/02/24 13:01:37;;;;;;;7.40;2.67;;;;;;;;;;5033202;28;20104;-81
2022/02/24 13:04:13;;;;;;;6.55;1.88;;;;;;;;;;5031806;28;20382;-81
2022/02/24 13:06:40;;;;;;;7.15;2.00;;;;;;;;;;5014492;28;20029;-81
2022/02/24 13:12:03;;;;;;;7.57;2.20;;;;;;;;;;5045422;28;20130;-81
2022/02/24 13:14:29;;;;;;;8.05;2.00;;;;;;;;;;5053277;28;20045;-81
2022/02/24 13:16:58;;;;;;;7.15;1.77;;;;;;;;;;5016989;28;20521;-81
2022/02/24 13:19:25;;;;;;;7.68;2.08;;;;;;;;;;5033107;28;20387;-81
2022/02/24 13:21:54;;;;;;;8.05;2.60;;;;;;;;;;5027022;28;20054;-81
2022/02/24 13:24:27;;;;;;;5.38;1.80;;;;;;;;;;5026270;28;20037;-81
2022/02/24 13:26:53;;;;;;;7.60;2.20;;;;;;;;;;5031408;28;20033;-81
2022/02/24 13:29:20;;;;;;;4.70;1.80;;;;;;;;;;5031903;28;20041;-81
2022/02/24 13:31:50;;;;;;;6.43;2.20;;;;;;;;;;5029861;28;20037;-80
2022/02/24 13:34:17;;;;;;;7.75;2.10;;;;;;;;;;5032896;28;20056;-80
2022/02/24 13:36:43;;;;;;;7.15;2.00;;;;;;;;;;5019982;28;20044;-81
2022/02/24 13:39:10;;;;;;;8.32;1.77;;;;;;;;;;5051270;28;20052;-81
2022/02/24 13:41:36;;;;;;;4.32;1.75;;;;;;;;;;5030904;28;20049;-81
2022/02/24 13:44:02;;;;;;;5.88;2.22;;;;;;;;;;5048873;28;20044;-81
2022/02/24 13:46:40;;;;;;;6.30;1.60;;;;;;;;;;5034413;28;20041;-81
2022/02/24 13:49:10;;;;;;;4.60;1.67;;;;;;;;;;5034751;28;20051;-81
2022/02/24 13:51:37;;;;;;;6.13;2.10;;;;;;;;;;5035995;28;20103;-81
2022/02/24 13:54:03;;;;;;;4.20;1.92;;;;;;;;;;5036304;28;20146;-81
2022/02/24 13:56:29;;;;;;;4.43;1.52;;;;;;;;;;5052752;28;20040;-80
2022/02/24 13:58:59;;;;;;;6.55;1.05;;;;;;;;;;5035758;28;20037;-79
2022/02/24 14:01:28;;;;;;;2.83;0.80;;;;;;;;;;5034556;28;20059;-80
2022/02/24 14:03:55;;;;;;;3.63;0.80;;;;;;;;;;5040819;28;20076;-79
2022/02/24 14:06:22;;;;;;;2.08;0.90;;;;;;;;;;5018930;28;20036;-79
2022/02/24 14:08:49;;;;;;;0.80;0.70;;;;;;;;;;5052776;28;20390;-79
2022/02/24 14:11:21;;;;;;;1.27;0.75;;;;;;;;;;5036080;28;20040;-79
2022/02/24 14:13:47;;;;;;;3.05;0.60;;;;;;;;;;5051843;28;20068;-79
2022/02/24 14:16:13;;;;;;;1.83;0.60;;;;;;;;;;5032166;28;20044;-80
2022/02/24 14:18:39;;;;;;;1.70;0.60;;;;;;;;;;5032768;28;20051;-80
2022/02/24 14:21:06;;;;;;;1.20;0.43;;;;;;;;;;5031466;28;20495;-80
2022/02/24 14:23:32;;;;;;;0.45;0.32;;;;;;;;;;5018995;28;20050;-80
2022/02/24 14:25:59;;;;;;;1.98;0.60;;;;;;;;;;5034877;28;20072;-80
2022/02/24 14:28:25;;;;;;;0.45;0.40;;;;;;;;;;5030603;28;20045;-80
2022/02/24 14:30:51;;;;;;;0.57;0.50;;;;;;;;;;5026868;28;20043;-80
2022/02/24 14:33:18;;;;;;;1.20;0.30;;;;;;;;;;5032092;28;20075;-80
2022/02/24 14:35:44;;;;;;;1.10;0.30;;;;;;;;;;5047833;28;20041;-80
2022/02/24 14:38:10;;;;;;;0.82;0.75;;;;;;;;;;5015979;28;20037;-80
2022/02/24 14:40:36;;;;;;;1.00;0.30;;;;;;;;;;5016862;28;20044;-80
2022/02/24 14:43:04;;;;;;;0.28;0.10;;;;;;;;;;5019062;28;20087;-80